^^
Station Historical Data
Daily Summary for January 24, 2018 Units:  Both    English   Metric
« Previous Day
Next Day »
Daily Weekly Monthly Yearly Custom
  High: Low: Average:
Temperature: TemperatureF °F /  -17.8 °C 60.1 °F /  15.6 °C 76 °F /  24.4 °C
Dew Point: DewpointF °F /  -17.8 °C 29.8 °F /  -1.2 °C 36.8 °F /  2.7 °C
Humidity: Humidity% 16% 25%
Wind Speed: WindSpeedMPHmph /  0km/h - 1.6mph /  2.6km/h
Wind Gust: WindSpeedGustMPHmph /  0km/h - -
Wind- - WSW
Pressure: PressureIn in /  0 hPa 29.55 in /  1000.6 hPa -
Precipitation: 0.00 in /  0 mm    
Historical Graphs
 
 
Tabular Data for January 24, 2018
Time Temperature Dew Point Pressure Wind Wind Speed Wind Gust Humidity Rainfall Rate (Hourly) solar Conditions
TemperatureF °F /  -17.8 °C DewpointF °F /  -17.8 °C PressureInin /  0hPa Calm     Humidity% HourlyPrecipInin /  0mm SolarRadiationWatts/m^2 W/m2 Conditions
00:00 72.0 °F /  22.2 °C 32.2 °F /  0.1 °C 29.67in /  1004.6hPa Calm   3.0mph /  4.8km/h 23% 0.00in /  0mm 0.0 W/m2
00:05 72.0 °F /  22.2 °C 32.2 °F /  0.1 °C 29.67in /  1004.6hPa Calm   3.0mph /  4.8km/h 23% 0.00in /  0mm 0.0 W/m2
00:10 72.0 °F /  22.2 °C 32.2 °F /  0.1 °C 29.67in /  1004.6hPa SW 0.9mph /  1.4km/h 3.0mph /  4.8km/h 23% 0.00in /  0mm 0.0 W/m2
00:15 71.8 °F /  22.1 °C 32.0 °F /  0 °C 29.67in /  1004.6hPa Calm   1.0mph /  1.6km/h 23% 0.00in /  0mm 0.0 W/m2
00:20 71.8 °F /  22.1 °C 32.0 °F /  0 °C 29.66in /  1004.3hPa Calm   1.0mph /  1.6km/h 23% 0.00in /  0mm 0.0 W/m2
00:26 71.6 °F /  22 °C 31.8 °F /  -0.1 °C 29.66in /  1004.3hPa Calm   1.0mph /  1.6km/h 23% 0.00in /  0mm 0.0 W/m2
00:31 71.4 °F /  21.9 °C 31.6 °F /  -0.2 °C 29.66in /  1004.3hPa Calm   1.0mph /  1.6km/h 23% 0.00in /  0mm 0.0 W/m2
00:36 71.2 °F /  21.8 °C 31.5 °F /  -0.3 °C 29.66in /  1004.3hPa Calm     23% 0.00in /  0mm 0.0 W/m2
00:41 71.1 °F /  21.7 °C 32.4 °F /  0.2 °C 29.66in /  1004.3hPa Calm   1.0mph /  1.6km/h 24% 0.00in /  0mm 0.0 W/m2
00:46 70.9 °F /  21.6 °C 32.4 °F /  0.2 °C 29.66in /  1004.3hPa Calm     24% 0.00in /  0mm 0.0 W/m2
00:51 70.9 °F /  21.6 °C 32.4 °F /  0.2 °C 29.66in /  1004.3hPa Calm   2.0mph /  3.2km/h 24% 0.00in /  0mm 0.0 W/m2
01:01 70.5 °F /  21.4 °C 33.1 °F /  0.6 °C 29.66in /  1004.3hPa Calm     25% 0.00in /  0mm 0.0 W/m2
01:06 70.5 °F /  21.4 °C 33.1 °F /  0.6 °C 29.66in /  1004.3hPa Calm     25% 0.00in /  0mm 0.0 W/m2
01:12 70.5 °F /  21.4 °C 33.1 °F /  0.6 °C 29.66in /  1004.3hPa Calm   1.0mph /  1.6km/h 25% 0.00in /  0mm 0.0 W/m2
01:17 70.5 °F /  21.4 °C 32.0 °F /  0 °C 29.67in /  1004.6hPa Calm     24% 0.00in /  0mm 0.0 W/m2
01:22 70.5 °F /  21.4 °C 32.0 °F /  0 °C 29.67in /  1004.6hPa Calm   2.0mph /  3.2km/h 24% 0.00in /  0mm 0.0 W/m2
01:27 70.5 °F /  21.4 °C 32.0 °F /  0 °C 29.67in /  1004.6hPa ENE 0.9mph /  1.4km/h 5.0mph /  8km/h 24% 0.00in /  0mm 0.0 W/m2
01:32 70.5 °F /  21.4 °C 32.0 °F /  0 °C 29.67in /  1004.6hPa Calm   1.0mph /  1.6km/h 24% 0.00in /  0mm 0.0 W/m2
01:37 70.5 °F /  21.4 °C 32.0 °F /  0 °C 29.67in /  1004.6hPa Calm     24% 0.00in /  0mm 0.0 W/m2
01:42 70.5 °F /  21.4 °C 33.1 °F /  0.6 °C 29.67in /  1004.6hPa NNW 0.9mph /  1.4km/h 1.0mph /  1.6km/h 25% 0.00in /  0mm 0.0 W/m2
01:47 70.3 °F /  21.3 °C 32.9 °F /  0.5 °C 29.67in /  1004.6hPa NE 0.9mph /  1.4km/h 4.0mph /  6.4km/h 25% 0.00in /  0mm 0.0 W/m2
01:53 70.2 °F /  21.2 °C 32.7 °F /  0.4 °C 29.67in /  1004.6hPa Calm   1.0mph /  1.6km/h 25% 0.00in /  0mm 0.0 W/m2
01:58 70.0 °F /  21.1 °C 33.4 °F /  0.8 °C 29.67in /  1004.6hPa NE 0.9mph /  1.4km/h 1.0mph /  1.6km/h 26% 0.00in /  0mm 0.0 W/m2
02:08 69.3 °F /  20.7 °C 32.9 °F /  0.5 °C 29.67in /  1004.6hPa Calm     26% 0.00in /  0mm 0.0 W/m2
02:13 69.1 °F /  20.6 °C 32.7 °F /  0.4 °C 29.67in /  1004.6hPa Calm   1.0mph /  1.6km/h 26% 0.00in /  0mm 0.0 W/m2
02:18 68.7 °F /  20.4 °C 32.4 °F /  0.2 °C 29.67in /  1004.6hPa Calm   1.0mph /  1.6km/h 26% 0.00in /  0mm 0.0 W/m2
02:23 68.5 °F /  20.3 °C 32.4 °F /  0.2 °C 29.67in /  1004.6hPa Calm     26% 0.00in /  0mm 0.0 W/m2
02:28 68.4 °F /  20.2 °C 33.1 °F /  0.6 °C 29.67in /  1004.6hPa Calm     27% 0.00in /  0mm 0.0 W/m2
02:38 67.8 °F /  19.9 °C 33.4 °F /  0.8 °C 29.67in /  1004.6hPa Calm     28% 0.00in /  0mm 0.0 W/m2
02:49 67.5 °F /  19.7 °C 32.4 °F /  0.2 °C 29.66in /  1004.3hPa Calm     27% 0.00in /  0mm 0.0 W/m2
02:54 67.3 °F /  19.6 °C 33.1 °F /  0.6 °C 29.67in /  1004.6hPa Calm   1.0mph /  1.6km/h 28% 0.00in /  0mm 0.0 W/m2
03:00 67.1 °F /  19.5 °C 32.9 °F /  0.5 °C 29.67in /  1004.6hPa Calm     28% 0.00in /  0mm 0.0 W/m2
03:05 66.9 °F /  19.4 °C 32.7 °F /  0.4 °C 29.66in /  1004.3hPa Calm     28% 0.00in /  0mm 0.0 W/m2
03:15 66.6 °F /  19.2 °C 32.4 °F /  0.2 °C 29.66in /  1004.3hPa Calm   3.0mph /  4.8km/h 28% 0.00in /  0mm 0.0 W/m2
03:20 66.4 °F /  19.1 °C 32.4 °F /  0.2 °C 29.66in /  1004.3hPa Calm   1.0mph /  1.6km/h 28% 0.00in /  0mm 0.0 W/m2
03:25 66.2 °F /  19 °C 33.1 °F /  0.6 °C 29.66in /  1004.3hPa Calm     29% 0.00in /  0mm 0.0 W/m2
03:36 65.8 °F /  18.8 °C 32.7 °F /  0.4 °C 29.66in /  1004.3hPa Calm     29% 0.00in /  0mm 0.0 W/m2
03:41 65.7 °F /  18.7 °C 32.5 °F /  0.3 °C 29.66in /  1004.3hPa Calm   2.0mph /  3.2km/h 29% 0.00in /  0mm 0.0 W/m2
03:46 65.5 °F /  18.6 °C 32.4 °F /  0.2 °C 29.66in /  1004.3hPa Calm   1.0mph /  1.6km/h 29% 0.00in /  0mm 0.0 W/m2
03:51 65.3 °F /  18.5 °C 33.1 °F /  0.6 °C 29.66in /  1004.3hPa Calm     30% 0.00in /  0mm 0.0 W/m2
03:56 64.9 °F /  18.3 °C 32.7 °F /  0.4 °C 29.65in /  1003.9hPa Calm     30% 0.00in /  0mm 0.0 W/m2
04:01 64.8 °F /  18.2 °C 33.4 °F /  0.8 °C 29.66in /  1004.3hPa Calm     31% 0.00in /  0mm 0.0 W/m2
04:06 64.6 °F /  18.1 °C 33.3 °F /  0.7 °C 29.66in /  1004.3hPa Calm     31% 0.00in /  0mm 0.0 W/m2
04:11 64.4 °F /  18 °C 34.0 °F /  1.1 °C 29.65in /  1003.9hPa NE 0.9mph /  1.4km/h 2.0mph /  3.2km/h 32% 0.00in /  0mm 0.0 W/m2
04:16 64.0 °F /  17.8 °C 32.7 °F /  0.4 °C 29.66in /  1004.3hPa Calm   2.0mph /  3.2km/h 31% 0.00in /  0mm 0.0 W/m2
04:22 63.9 °F /  17.7 °C 33.4 °F /  0.8 °C 29.66in /  1004.3hPa Calm     32% 0.00in /  0mm 0.0 W/m2
04:27 63.7 °F /  17.6 °C 33.3 °F /  0.7 °C 29.66in /  1004.3hPa Calm     32% 0.00in /  0mm 0.0 W/m2
04:32 63.3 °F /  17.4 °C 33.8 °F /  1 °C 29.66in /  1004.3hPa Calm     33% 0.00in /  0mm 0.0 W/m2
04:42 63.0 °F /  17.2 °C 34.2 °F /  1.2 °C 29.65in /  1003.9hPa Calm   1.0mph /  1.6km/h 34% 0.00in /  0mm 0.0 W/m2
04:47 62.8 °F /  17.1 °C 34.0 °F /  1.1 °C 29.65in /  1003.9hPa NE 0.9mph /  1.4km/h 1.0mph /  1.6km/h 34% 0.00in /  0mm 0.0 W/m2
04:52 62.6 °F /  17 °C 33.8 °F /  1 °C 29.65in /  1003.9hPa Calm     34% 0.00in /  0mm 0.0 W/m2
04:57 62.4 °F /  16.9 °C 32.9 °F /  0.5 °C 29.65in /  1003.9hPa Calm   1.0mph /  1.6km/h 33% 0.00in /  0mm 0.0 W/m2
05:02 62.2 °F /  16.8 °C 33.4 °F /  0.8 °C 29.65in /  1003.9hPa Calm   1.0mph /  1.6km/h 34% 0.00in /  0mm 0.0 W/m2
05:08 62.1 °F /  16.7 °C 33.4 °F /  0.8 °C 29.65in /  1003.9hPa Calm   1.0mph /  1.6km/h 34% 0.00in /  0mm 0.0 W/m2
05:13 61.9 °F /  16.6 °C 34.7 °F /  1.5 °C 29.65in /  1003.9hPa Calm     36% 0.00in /  0mm 0.0 W/m2
05:18 61.7 °F /  16.5 °C 33.8 °F /  1 °C 29.65in /  1003.9hPa Calm   2.0mph /  3.2km/h 35% 0.00in /  0mm 0.0 W/m2
05:23 61.3 °F /  16.3 °C 33.4 °F /  0.8 °C 29.66in /  1004.3hPa Calm   1.0mph /  1.6km/h 35% 0.00in /  0mm 0.0 W/m2
05:28 61.2 °F /  16.2 °C 33.3 °F /  0.7 °C 29.65in /  1003.9hPa Calm   1.0mph /  1.6km/h 35% 0.00in /  0mm 0.0 W/m2
05:33 61.2 °F /  16.2 °C 33.3 °F /  0.7 °C 29.66in /  1004.3hPa Calm   3.0mph /  4.8km/h 35% 0.00in /  0mm 0.0 W/m2
05:38 61.0 °F /  16.1 °C 33.1 °F /  0.6 °C 29.66in /  1004.3hPa East 2.0mph /  3.2km/h 3.0mph /  4.8km/h 35% 0.00in /  0mm 0.0 W/m2
05:43 60.8 °F /  16 °C 32.9 °F /  0.5 °C 29.66in /  1004.3hPa Calm   2.0mph /  3.2km/h 35% 0.00in /  0mm 0.0 W/m2
05:54 60.6 °F /  15.9 °C 32.9 °F /  0.5 °C 29.66in /  1004.3hPa Calm   2.0mph /  3.2km/h 35% 0.00in /  0mm 0.0 W/m2
05:59 60.6 °F /  15.9 °C 32.9 °F /  0.5 °C 29.66in /  1004.3hPa Calm   1.0mph /  1.6km/h 35% 0.00in /  0mm 0.0 W/m2
06:04 60.6 °F /  15.9 °C 33.4 °F /  0.8 °C 29.66in /  1004.3hPa Calm   3.0mph /  4.8km/h 36% 0.00in /  0mm 0.0 W/m2
06:09 60.6 °F /  15.9 °C 33.4 °F /  0.8 °C 29.66in /  1004.3hPa Calm   1.0mph /  1.6km/h 36% 0.00in /  0mm 0.0 W/m2
06:14 60.6 °F /  15.9 °C 33.4 °F /  0.8 °C 29.66in /  1004.3hPa Calm   1.0mph /  1.6km/h 36% 0.00in /  0mm 0.0 W/m2
06:19 60.4 °F /  15.8 °C 33.4 °F /  0.8 °C 29.66in /  1004.3hPa Calm     36% 0.00in /  0mm 0.0 W/m2
06:24 60.4 °F /  15.8 °C 34.0 °F /  1.1 °C 29.66in /  1004.3hPa Calm     37% 0.00in /  0mm 0.0 W/m2
06:29 60.4 °F /  15.8 °C 34.0 °F /  1.1 °C 29.66in /  1004.3hPa Calm     37% 0.00in /  0mm 5.0 W/m2
06:34 60.3 °F /  15.7 °C 33.8 °F /  1 °C 29.67in /  1004.6hPa Calm     37% 0.00in /  0mm 7.0 W/m2
06:39 60.3 °F /  15.7 °C 33.8 °F /  1 °C 29.67in /  1004.6hPa Calm     37% 0.00in /  0mm 9.0 W/m2
06:45 60.3 °F /  15.7 °C 34.5 °F /  1.4 °C 29.67in /  1004.6hPa Calm     38% 0.00in /  0mm 11.0 W/m2
06:50 60.1 °F /  15.6 °C 33.8 °F /  1 °C 29.68in /  1005hPa ESE 2.9mph /  4.7km/h 4.0mph /  6.4km/h 37% 0.00in /  0mm 12.0 W/m2
06:55 60.1 °F /  15.6 °C 33.8 °F /  1 °C 29.68in /  1005hPa Calm   1.0mph /  1.6km/h 37% 0.00in /  0mm 14.0 W/m2
07:00 60.1 °F /  15.6 °C 33.1 °F /  0.6 °C 29.68in /  1005hPa Calm   2.0mph /  3.2km/h 36% 0.00in /  0mm 16.0 W/m2
07:05 60.1 °F /  15.6 °C 33.1 °F /  0.6 °C 29.68in /  1005hPa ESE 0.9mph /  1.4km/h 2.0mph /  3.2km/h 36% 0.00in /  0mm 18.0 W/m2
07:10 60.3 °F /  15.7 °C 33.3 °F /  0.7 °C 29.68in /  1005hPa Calm   2.0mph /  3.2km/h 36% 0.00in /  0mm 19.0 W/m2
07:21 61.0 °F /  16.1 °C 33.8 °F /  1 °C 29.68in /  1005hPa Calm   3.0mph /  4.8km/h 36% 0.00in /  0mm 21.0 W/m2
07:26 61.2 °F /  16.2 °C 33.3 °F /  0.7 °C 29.68in /  1005hPa Calm   3.0mph /  4.8km/h 35% 0.00in /  0mm 23.0 W/m2
07:31 61.7 °F /  16.5 °C 33.8 °F /  1 °C 29.68in /  1005hPa Calm   5.0mph /  8km/h 35% 0.00in /  0mm 25.0 W/m2
07:36 62.1 °F /  16.7 °C 34.2 °F /  1.2 °C 29.68in /  1005hPa Calm   3.0mph /  4.8km/h 35% 0.00in /  0mm 25.0 W/m2
07:41 62.6 °F /  17 °C 34.5 °F /  1.4 °C 29.68in /  1005hPa Calm   1.0mph /  1.6km/h 35% 0.00in /  0mm 26.0 W/m2
07:46 63.1 °F /  17.3 °C 34.3 °F /  1.3 °C 29.68in /  1005hPa Calm   1.0mph /  1.6km/h 34% 0.00in /  0mm 141.0 W/m2
07:51 63.9 °F /  17.7 °C 34.2 °F /  1.2 °C 29.68in /  1005hPa Calm   1.0mph /  1.6km/h 33% 0.00in /  0mm 202.0 W/m2
07:56 64.8 °F /  18.2 °C 34.2 °F /  1.2 °C 29.68in /  1005hPa Calm   1.0mph /  1.6km/h 32% 0.00in /  0mm 281.0 W/m2
08:01 65.7 °F /  18.7 °C 35.8 °F /  2.1 °C 29.68in /  1005hPa Calm   1.0mph /  1.6km/h 33% 0.00in /  0mm 325.0 W/m2
08:06 66.4 °F /  19.1 °C 35.6 °F /  2 °C 29.68in /  1005hPa Calm   1.0mph /  1.6km/h 32% 0.00in /  0mm 341.0 W/m2
08:12 67.3 °F /  19.6 °C 35.6 °F /  2 °C 29.68in /  1005hPa Calm     31% 0.00in /  0mm 371.0 W/m2
08:17 68.2 °F /  20.1 °C 34.7 °F /  1.5 °C 29.68in /  1005hPa Calm   1.0mph /  1.6km/h 29% 0.00in /  0mm 399.0 W/m2
08:27 71.4 °F /  21.9 °C 30.6 °F /  -0.8 °C 29.68in /  1005hPa Calm   1.0mph /  1.6km/h 22% 0.00in /  0mm 438.0 W/m2
08:32 72.7 °F /  22.6 °C 30.6 °F /  -0.8 °C 29.68in /  1005hPa West 0.9mph /  1.4km/h 2.0mph /  3.2km/h 21% 0.00in /  0mm 461.0 W/m2
08:37 73.4 °F /  23 °C 31.1 °F /  -0.5 °C 29.68in /  1005hPa Calm   1.0mph /  1.6km/h 21% 0.00in /  0mm 480.0 W/m2
08:42 74.8 °F /  23.8 °C 29.8 °F /  -1.2 °C 29.68in /  1005hPa Calm   3.0mph /  4.8km/h 19% 0.00in /  0mm 499.0 W/m2
08:47 75.9 °F /  24.4 °C 30.7 °F /  -0.7 °C 29.68in /  1005hPa Calm   1.0mph /  1.6km/h 19% 0.00in /  0mm 520.0 W/m2
08:58 77.0 °F /  25 °C 31.6 °F /  -0.2 °C 29.68in /  1005hPa NW 0.9mph /  1.4km/h 3.0mph /  4.8km/h 19% 0.00in /  0mm 557.0 W/m2
09:03 77.7 °F /  25.4 °C 32.2 °F /  0.1 °C 29.68in /  1005hPa West 2.0mph /  3.2km/h 3.0mph /  4.8km/h 19% 0.00in /  0mm 577.0 W/m2
09:08 77.7 °F /  25.4 °C 32.2 °F /  0.1 °C 29.68in /  1005hPa NW 2.9mph /  4.7km/h 3.0mph /  4.8km/h 19% 0.00in /  0mm 594.0 W/m2
09:13 78.1 °F /  25.6 °C 32.5 °F /  0.3 °C 29.68in /  1005hPa North 2.0mph /  3.2km/h 2.0mph /  3.2km/h 19% 0.00in /  0mm 613.0 W/m2
09:18 78.3 °F /  25.7 °C 32.5 °F /  0.3 °C 29.67in /  1004.6hPa WNW 2.0mph /  3.2km/h 4.0mph /  6.4km/h 19% 0.00in /  0mm 631.0 W/m2
09:23 78.1 °F /  25.6 °C 32.5 °F /  0.3 °C 29.67in /  1004.6hPa Calm   5.0mph /  8km/h 19% 0.00in /  0mm 650.0 W/m2
09:28 78.4 °F /  25.8 °C 32.7 °F /  0.4 °C 29.68in /  1005hPa Calm   3.0mph /  4.8km/h 19% 0.00in /  0mm 668.0 W/m2
09:54 80.1 °F /  26.7 °C 34.2 °F /  1.2 °C 29.68in /  1005hPa WSW 0.9mph /  1.4km/h 7.0mph /  11.3km/h 19% 0.00in /  0mm 756.0 W/m2
09:59 80.2 °F /  26.8 °C 34.2 °F /  1.2 °C 29.68in /  1005hPa NE 2.9mph /  4.7km/h 3.0mph /  4.8km/h 19% 0.00in /  0mm 772.0 W/m2
10:04 80.6 °F /  27 °C 35.8 °F /  2.1 °C 29.67in /  1004.6hPa Calm   2.0mph /  3.2km/h 20% 0.00in /  0mm 788.0 W/m2
10:09 81.1 °F /  27.3 °C 35.1 °F /  1.7 °C 29.67in /  1004.6hPa NW 2.0mph /  3.2km/h 5.0mph /  8km/h 19% 0.00in /  0mm 805.0 W/m2
10:14 81.9 °F /  27.7 °C 35.6 °F /  2 °C 29.67in /  1004.6hPa Calm   4.0mph /  6.4km/h 19% 0.00in /  0mm 819.0 W/m2
10:19 82.2 °F /  27.9 °C 35.8 °F /  2.1 °C 29.67in /  1004.6hPa WSW 0.9mph /  1.4km/h 3.0mph /  4.8km/h 19% 0.00in /  0mm 835.0 W/m2
10:24 82.0 °F /  27.8 °C 35.8 °F /  2.1 °C 29.67in /  1004.6hPa Calm   3.0mph /  4.8km/h 19% 0.00in /  0mm 851.0 W/m2
10:29 82.6 °F /  28.1 °C 36.1 °F /  2.3 °C 29.67in /  1004.6hPa NNW 4.0mph /  6.4km/h 6.0mph /  9.7km/h 19% 0.00in /  0mm 865.0 W/m2
10:34 83.1 °F /  28.4 °C 36.7 °F /  2.6 °C 29.67in /  1004.6hPa WSW 4.0mph /  6.4km/h 6.0mph /  9.7km/h 19% 0.00in /  0mm 879.0 W/m2
10:40 83.5 °F /  28.6 °C 38.1 °F /  3.4 °C 29.67in /  1004.6hPa WSW 2.9mph /  4.7km/h 5.0mph /  8km/h 20% 0.00in /  0mm 891.0 W/m2
10:45 83.5 °F /  28.6 °C 36.9 °F /  2.7 °C 29.67in /  1004.6hPa South 4.9mph /  7.9km/h 6.0mph /  9.7km/h 19% 0.00in /  0mm 907.0 W/m2
10:50 83.1 °F /  28.4 °C 37.9 °F /  3.3 °C 29.67in /  1004.6hPa WNW 2.9mph /  4.7km/h 5.0mph /  8km/h 20% 0.00in /  0mm 916.0 W/m2
10:55 83.1 °F /  28.4 °C 40.3 °F /  4.6 °C 29.67in /  1004.6hPa WSW 0.9mph /  1.4km/h 8.0mph /  12.9km/h 22% 0.00in /  0mm 925.0 W/m2
11:00 83.7 °F /  28.7 °C 39.6 °F /  4.2 °C 29.66in /  1004.3hPa Calm   7.0mph /  11.3km/h 21% 0.00in /  0mm 937.0 W/m2
11:05 84.6 °F /  29.2 °C 41.5 °F /  5.3 °C 29.66in /  1004.3hPa Calm   8.0mph /  12.9km/h 22% 0.00in /  0mm 946.0 W/m2
11:20 84.4 °F /  29.1 °C 40.1 °F /  4.5 °C 29.66in /  1004.3hPa WNW 2.0mph /  3.2km/h 7.0mph /  11.3km/h 21% 0.00in /  0mm 977.0 W/m2
11:32 86.4 °F /  30.2 °C 40.6 °F /  4.8 °C 29.66in /  1004.3hPa NW 2.0mph /  3.2km/h 6.0mph /  9.7km/h 20% 0.00in /  0mm 998.0 W/m2
11:42 86.5 °F /  30.3 °C 40.6 °F /  4.8 °C 29.66in /  1004.3hPa NW 2.0mph /  3.2km/h 3.0mph /  4.8km/h 20% 0.00in /  0mm 1014.0 W/m2
11:48 86.2 °F /  30.1 °C 40.5 °F /  4.7 °C 29.65in /  1003.9hPa WNW 0.9mph /  1.4km/h 7.0mph /  11.3km/h 20% 0.00in /  0mm 1023.0 W/m2
11:53 86.5 °F /  30.3 °C 40.6 °F /  4.8 °C 29.65in /  1003.9hPa NW 4.0mph /  6.4km/h 8.0mph /  12.9km/h 20% 0.00in /  0mm 1028.0 W/m2
11:56 86.9 °F /  30.5 °C 39.7 °F /  4.3 °C 29.65in /  1003.9hPa West 2.0mph /  3.2km/h 5.0mph /  8km/h 19% 0.00in /  0mm 1030.0 W/m2
12:01 86.9 °F /  30.5 °C 39.7 °F /  4.3 °C 29.65in /  1003.9hPa West 6.0mph /  9.7km/h 8.0mph /  12.9km/h 19% 0.00in /  0mm 1039.0 W/m2
12:06 86.5 °F /  30.3 °C 39.4 °F /  4.1 °C 29.65in /  1003.9hPa NW 2.9mph /  4.7km/h 3.0mph /  4.8km/h 19% 0.00in /  0mm 1042.0 W/m2
12:17 87.4 °F /  30.8 °C 38.7 °F /  3.7 °C 29.65in /  1003.9hPa NNW 8.9mph /  14.3km/h 12.0mph /  19.3km/h 18% 0.00in /  0mm 1049.0 W/m2
12:22 87.6 °F /  30.9 °C 40.3 °F /  4.6 °C 29.65in /  1003.9hPa Calm   5.0mph /  8km/h 19% 0.00in /  0mm 1055.0 W/m2
12:27 87.6 °F /  30.9 °C 40.3 °F /  4.6 °C 29.64in /  1003.6hPa NW 2.0mph /  3.2km/h 4.0mph /  6.4km/h 19% 0.00in /  0mm 1060.0 W/m2
12:37 87.8 °F /  31 °C 39.0 °F /  3.9 °C 29.64in /  1003.6hPa SE 2.9mph /  4.7km/h 4.0mph /  6.4km/h 18% 0.00in /  0mm 1062.0 W/m2
12:42 88.3 °F /  31.3 °C 37.9 °F /  3.3 °C 29.63in /  1003.3hPa Calm   1.0mph /  1.6km/h 17% 0.00in /  0mm 1069.0 W/m2
12:52 89.2 °F /  31.8 °C 40.3 °F /  4.6 °C 29.63in /  1003.3hPa West 0.9mph /  1.4km/h 7.0mph /  11.3km/h 18% 0.00in /  0mm 1058.0 W/m2
13:07 89.2 °F /  31.8 °C 38.7 °F /  3.7 °C 29.62in /  1002.9hPa WSW 2.9mph /  4.7km/h 9.0mph /  14.5km/h 17% 0.00in /  0mm 1081.0 W/m2
13:23 89.1 °F /  31.7 °C 40.1 °F /  4.5 °C 29.62in /  1002.9hPa SSW 4.0mph /  6.4km/h 9.0mph /  14.5km/h 18% 0.00in /  0mm 1100.0 W/m2
13:28 88.5 °F /  31.4 °C 39.6 °F /  4.2 °C 29.62in /  1002.9hPa WSW 4.0mph /  6.4km/h 11.0mph /  17.7km/h 18% 0.00in /  0mm 1095.0 W/m2
13:38 89.2 °F /  31.8 °C 40.3 °F /  4.6 °C 29.62in /  1002.9hPa North 0.9mph /  1.4km/h 6.0mph /  9.7km/h 18% 0.00in /  0mm 1072.0 W/m2
13:48 90.9 °F /  32.7 °C 40.1 °F /  4.5 °C 29.62in /  1002.9hPa Calm   4.0mph /  6.4km/h 17% 0.00in /  0mm 1074.0 W/m2
13:53 91.2 °F /  32.9 °C 40.3 °F /  4.6 °C 29.61in /  1002.6hPa SE 2.0mph /  3.2km/h 7.0mph /  11.3km/h 17% 0.00in /  0mm 1111.0 W/m2
14:04 91.4 °F /  33 °C 40.5 °F /  4.7 °C 29.60in /  1002.3hPa West 0.9mph /  1.4km/h 8.0mph /  12.9km/h 17% 0.00in /  0mm 1090.0 W/m2
14:09 91.6 °F /  33.1 °C 39.0 °F /  3.9 °C 29.60in /  1002.3hPa WSW 4.0mph /  6.4km/h 7.0mph /  11.3km/h 16% 0.00in /  0mm 1151.0 W/m2
14:32 93.4 °F /  34.1 °C 40.5 °F /  4.7 °C 29.60in /  1002.3hPa NNE 0.9mph /  1.4km/h 2.0mph /  3.2km/h 16% 0.00in /  0mm 332.0 W/m2
14:37 92.3 °F /  33.5 °C 41.2 °F /  5.1 °C 29.60in /  1002.3hPa NW 2.0mph /  3.2km/h 7.0mph /  11.3km/h 17% 0.00in /  0mm 520.0 W/m2
14:43 91.6 °F /  33.1 °C 40.6 °F /  4.8 °C 29.59in /  1001.9hPa Calm   3.0mph /  4.8km/h 17% 0.00in /  0mm 325.0 W/m2
14:48 90.7 °F /  32.6 °C 41.4 °F /  5.2 °C 29.59in /  1001.9hPa NW 2.9mph /  4.7km/h 14.0mph /  22.5km/h 18% 0.00in /  0mm 297.0 W/m2
14:53 89.8 °F /  32.1 °C 42.1 °F /  5.6 °C 29.59in /  1001.9hPa WNW 4.0mph /  6.4km/h 9.0mph /  14.5km/h 19% 0.00in /  0mm 292.0 W/m2
14:58 89.6 °F /  32 °C 41.9 °F /  5.5 °C 29.59in /  1001.9hPa NW 6.9mph /  11.1km/h 12.0mph /  19.3km/h 19% 0.00in /  0mm 397.0 W/m2
15:03 89.2 °F /  31.8 °C 41.5 °F /  5.3 °C 29.59in /  1001.9hPa WNW 2.0mph /  3.2km/h 5.0mph /  8km/h 19% 0.00in /  0mm 320.0 W/m2
15:08 88.9 °F /  31.6 °C 41.4 °F /  5.2 °C 29.59in /  1001.9hPa Calm   6.0mph /  9.7km/h 19% 0.00in /  0mm 318.0 W/m2
15:13 89.1 °F /  31.7 °C 41.4 °F /  5.2 °C 29.59in /  1001.9hPa West 4.9mph /  7.9km/h 9.0mph /  14.5km/h 19% 0.00in /  0mm 1048.0 W/m2
15:18 89.2 °F /  31.8 °C 41.5 °F /  5.3 °C 29.59in /  1001.9hPa NNW 0.9mph /  1.4km/h 8.0mph /  12.9km/h 19% 0.00in /  0mm 229.0 W/m2
15:23 89.1 °F /  31.7 °C 41.4 °F /  5.2 °C 29.59in /  1001.9hPa NW 17.0mph /  27.4km/h 17.0mph /  27.4km/h 19% 0.00in /  0mm 285.0 W/m2
15:28 88.9 °F /  31.6 °C 41.4 °F /  5.2 °C 29.59in /  1001.9hPa West 0.9mph /  1.4km/h 15.0mph /  24.1km/h 19% 0.00in /  0mm 765.0 W/m2
15:34 89.1 °F /  31.7 °C 41.4 °F /  5.2 °C 29.58in /  1001.6hPa North 4.0mph /  6.4km/h 8.0mph /  12.9km/h 19% 0.00in /  0mm 986.0 W/m2
15:39 90.0 °F /  32.2 °C 42.3 °F /  5.7 °C 29.58in /  1001.6hPa WSW 8.1mph /  13km/h 12.0mph /  19.3km/h 19% 0.00in /  0mm 911.0 W/m2
15:44 90.3 °F /  32.4 °C 42.4 °F /  5.8 °C 29.58in /  1001.6hPa SW 2.9mph /  4.7km/h 9.0mph /  14.5km/h 19% 0.00in /  0mm 865.0 W/m2
15:49 90.3 °F /  32.4 °C 41.0 °F /  5 °C 29.58in /  1001.6hPa Calm   10.0mph /  16.1km/h 18% 0.00in /  0mm 849.0 W/m2
15:54 90.3 °F /  32.4 °C 42.4 °F /  5.8 °C 29.58in /  1001.6hPa West 4.9mph /  7.9km/h 5.0mph /  8km/h 19% 0.00in /  0mm 831.0 W/m2
15:59 90.9 °F /  32.7 °C 41.5 °F /  5.3 °C 29.57in /  1001.2hPa Calm   4.0mph /  6.4km/h 18% 0.00in /  0mm 816.0 W/m2
16:04 91.2 °F /  32.9 °C 43.2 °F /  6.2 °C 29.57in /  1001.2hPa SW 2.9mph /  4.7km/h 6.0mph /  9.7km/h 19% 0.00in /  0mm 860.0 W/m2
16:09 91.9 °F /  33.3 °C 42.4 °F /  5.8 °C 29.57in /  1001.2hPa SSW 2.0mph /  3.2km/h 7.0mph /  11.3km/h 18% 0.00in /  0mm 805.0 W/m2
16:15 91.9 °F /  33.3 °C 42.4 °F /  5.8 °C 29.57in /  1001.2hPa West 0.9mph /  1.4km/h 5.0mph /  8km/h 18% 0.00in /  0mm 735.0 W/m2
16:20 92.1 °F /  33.4 °C 42.4 °F /  5.8 °C 29.57in /  1001.2hPa SW 2.9mph /  4.7km/h 10.0mph /  16.1km/h 18% 0.00in /  0mm 751.0 W/m2
16:25 92.1 °F /  33.4 °C 42.4 °F /  5.8 °C 29.56in /  1000.9hPa NNW 2.9mph /  4.7km/h 6.0mph /  9.7km/h 18% 0.00in /  0mm 733.0 W/m2
16:30 92.1 °F /  33.4 °C 41.0 °F /  5 °C 29.56in /  1000.9hPa NNW 2.9mph /  4.7km/h 10.0mph /  16.1km/h 17% 0.00in /  0mm 686.0 W/m2
16:40 91.8 °F /  33.2 °C 42.3 °F /  5.7 °C 29.56in /  1000.9hPa NNW 4.9mph /  7.9km/h 10.0mph /  16.1km/h 18% 0.00in /  0mm 654.0 W/m2
16:45 91.6 °F /  33.1 °C 42.1 °F /  5.6 °C 29.56in /  1000.9hPa WSW 4.9mph /  7.9km/h 8.0mph /  12.9km/h 18% 0.00in /  0mm 640.0 W/m2
16:50 91.2 °F /  32.9 °C 41.7 °F /  5.4 °C 29.55in /  1000.6hPa WSW 8.9mph /  14.3km/h 9.0mph /  14.5km/h 18% 0.00in /  0mm 605.0 W/m2
16:55 90.9 °F /  32.7 °C 41.5 °F /  5.3 °C 29.55in /  1000.6hPa SW 4.0mph /  6.4km/h 9.0mph /  14.5km/h 18% 0.00in /  0mm 585.0 W/m2
17:00 90.5 °F /  32.5 °C 41.2 °F /  5.1 °C 29.55in /  1000.6hPa WSW 2.0mph /  3.2km/h 11.0mph /  17.7km/h 18% 0.00in /  0mm 571.0 W/m2
17:06 90.3 °F /  32.4 °C 41.0 °F /  5 °C 29.55in /  1000.6hPa WSW 2.9mph /  4.7km/h 13.0mph /  20.9km/h 18% 0.00in /  0mm 547.0 W/m2
17:11 90.3 °F /  32.4 °C 41.0 °F /  5 °C 29.55in /  1000.6hPa Calm   4.0mph /  6.4km/h 18% 0.00in /  0mm 531.0 W/m2
17:16 90.3 °F /  32.4 °C 41.0 °F /  5 °C 29.55in /  1000.6hPa WSW 4.0mph /  6.4km/h 7.0mph /  11.3km/h 18% 0.00in /  0mm 515.0 W/m2
17:21 90.3 °F /  32.4 °C 41.0 °F /  5 °C 29.55in /  1000.6hPa West 2.0mph /  3.2km/h 8.0mph /  12.9km/h 18% 0.00in /  0mm 492.0 W/m2
17:26 90.7 °F /  32.6 °C 41.4 °F /  5.2 °C 29.55in /  1000.6hPa NW 4.9mph /  7.9km/h 7.0mph /  11.3km/h 18% 0.00in /  0mm 483.0 W/m2
17:31 90.7 °F /  32.6 °C 41.4 °F /  5.2 °C 29.55in /  1000.6hPa SW 6.9mph /  11.1km/h 7.0mph /  11.3km/h 18% 0.00in /  0mm 47.0 W/m2
17:36 89.8 °F /  32.1 °C 40.6 °F /  4.8 °C 29.55in /  1000.6hPa WSW 4.0mph /  6.4km/h 5.0mph /  8km/h 18% 0.00in /  0mm 65.0 W/m2
17:41 89.2 °F /  31.8 °C 40.3 °F /  4.6 °C 29.55in /  1000.6hPa WSW 2.9mph /  4.7km/h 6.0mph /  9.7km/h 18% 0.00in /  0mm 415.0 W/m2
17:47 89.4 °F /  31.9 °C 40.3 °F /  4.6 °C 29.55in /  1000.6hPa WSW 4.0mph /  6.4km/h 8.0mph /  12.9km/h 18% 0.00in /  0mm 390.0 W/m2
17:52 89.6 °F /  32 °C 40.5 °F /  4.7 °C 29.55in /  1000.6hPa West 2.9mph /  4.7km/h 9.0mph /  14.5km/h 18% 0.00in /  0mm 380.0 W/m2
17:57 89.6 °F /  32 °C 40.5 °F /  4.7 °C 29.55in /  1000.6hPa WSW 2.9mph /  4.7km/h 9.0mph /  14.5km/h 18% 0.00in /  0mm 338.0 W/m2
18:02 88.9 °F /  31.6 °C 39.9 °F /  4.4 °C 29.55in /  1000.6hPa West 2.9mph /  4.7km/h 10.0mph /  16.1km/h 18% 0.00in /  0mm 334.0 W/m2
18:07 88.0 °F /  31.1 °C 40.6 °F /  4.8 °C 29.55in /  1000.6hPa West 10.1mph /  16.3km/h 11.0mph /  17.7km/h 19% 0.00in /  0mm 308.0 W/m2
18:12 87.4 °F /  30.8 °C 40.1 °F /  4.5 °C 29.55in /  1000.6hPa WNW 8.9mph /  14.3km/h 9.0mph /  14.5km/h 19% 0.00in /  0mm 295.0 W/m2
18:22 87.3 °F /  30.7 °C 39.9 °F /  4.4 °C 29.56in /  1000.9hPa SW 4.9mph /  7.9km/h 11.0mph /  17.7km/h 19% 0.00in /  0mm 258.0 W/m2
18:28 86.9 °F /  30.5 °C 39.7 °F /  4.3 °C 29.57in /  1001.2hPa WSW 10.1mph /  16.3km/h 17.0mph /  27.4km/h 19% 0.00in /  0mm 234.0 W/m2
18:34 86.2 °F /  30.1 °C 40.5 °F /  4.7 °C 29.56in /  1000.9hPa SW 2.0mph /  3.2km/h 10.0mph /  16.1km/h 20% 0.00in /  0mm 209.0 W/m2
18:39 85.8 °F /  29.9 °C 40.1 °F /  4.5 °C 29.57in /  1001.2hPa SW 2.0mph /  3.2km/h 10.0mph /  16.1km/h 20% 0.00in /  0mm 185.0 W/m2
18:44 85.6 °F /  29.8 °C 39.9 °F /  4.4 °C 29.57in /  1001.2hPa West 4.9mph /  7.9km/h 11.0mph /  17.7km/h 20% 0.00in /  0mm 163.0 W/m2
18:50 84.7 °F /  29.3 °C 39.2 °F /  4 °C 29.57in /  1001.2hPa SSW 4.9mph /  7.9km/h 13.0mph /  20.9km/h 20% 0.00in /  0mm 132.0 W/m2
18:55 84.0 °F /  28.9 °C 38.7 °F /  3.7 °C 29.57in /  1001.2hPa SW 4.0mph /  6.4km/h 10.0mph /  16.1km/h 20% 0.00in /  0mm 46.0 W/m2
19:05 83.3 °F /  28.5 °C 39.4 °F /  4.1 °C 29.58in /  1001.6hPa SSW 4.9mph /  7.9km/h 8.0mph /  12.9km/h 21% 0.00in /  0mm 28.0 W/m2
19:15 82.2 °F /  27.9 °C 39.6 °F /  4.2 °C 29.59in /  1001.9hPa West 10.1mph /  16.3km/h 13.0mph /  20.9km/h 22% 0.00in /  0mm 21.0 W/m2
19:26 81.5 °F /  27.5 °C 39.0 °F /  3.9 °C 29.59in /  1001.9hPa WSW 8.9mph /  14.3km/h 11.0mph /  17.7km/h 22% 0.00in /  0mm 12.0 W/m2
19:32 81.0 °F /  27.2 °C 39.7 °F /  4.3 °C 29.59in /  1001.9hPa WSW 0.9mph /  1.4km/h 9.0mph /  14.5km/h 23% 0.00in /  0mm 9.0 W/m2
19:42 80.2 °F /  26.8 °C 39.0 °F /  3.9 °C 29.60in /  1002.3hPa WSW 2.0mph /  3.2km/h 9.0mph /  14.5km/h 23% 0.00in /  0mm 0.0 W/m2
19:47 80.1 °F /  26.7 °C 40.1 °F /  4.5 °C 29.60in /  1002.3hPa WSW 2.0mph /  3.2km/h 8.0mph /  12.9km/h 24% 0.00in /  0mm 0.0 W/m2
19:52 79.9 °F /  26.6 °C 39.9 °F /  4.4 °C 29.61in /  1002.6hPa WSW 8.9mph /  14.3km/h 10.0mph /  16.1km/h 24% 0.00in /  0mm 0.0 W/m2
19:57 79.3 °F /  26.3 °C 39.4 °F /  4.1 °C 29.61in /  1002.6hPa SSW 2.9mph /  4.7km/h 14.0mph /  22.5km/h 24% 0.00in /  0mm 0.0 W/m2
20:02 79.0 °F /  26.1 °C 40.1 °F /  4.5 °C 29.62in /  1002.9hPa Calm   11.0mph /  17.7km/h 25% 0.00in /  0mm 0.0 W/m2
20:07 78.6 °F /  25.9 °C 39.9 °F /  4.4 °C 29.62in /  1002.9hPa West 6.0mph /  9.7km/h 6.0mph /  9.7km/h 25% 0.00in /  0mm 0.0 W/m2
20:12 78.4 °F /  25.8 °C 40.6 °F /  4.8 °C 29.62in /  1002.9hPa WSW 2.0mph /  3.2km/h 7.0mph /  11.3km/h 26% 0.00in /  0mm 0.0 W/m2
20:17 78.1 °F /  25.6 °C 40.5 °F /  4.7 °C 29.63in /  1003.3hPa WNW 6.9mph /  11.1km/h 9.0mph /  14.5km/h 26% 0.00in /  0mm 0.0 W/m2
20:22 77.7 °F /  25.4 °C 40.1 °F /  4.5 °C 29.63in /  1003.3hPa West 0.9mph /  1.4km/h 7.0mph /  11.3km/h 26% 0.00in /  0mm 0.0 W/m2
20:27 77.5 °F /  25.3 °C 41.0 °F /  5 °C 29.63in /  1003.3hPa WSW 4.9mph /  7.9km/h 5.0mph /  8km/h 27% 0.00in /  0mm 0.0 W/m2
20:32 77.4 °F /  25.2 °C 40.8 °F /  4.9 °C 29.64in /  1003.6hPa WSW 2.9mph /  4.7km/h 10.0mph /  16.1km/h 27% 0.00in /  0mm 0.0 W/m2
20:38 77.0 °F /  25 °C 40.5 °F /  4.7 °C 29.64in /  1003.6hPa SSW 6.0mph /  9.7km/h 11.0mph /  17.7km/h 27% 0.00in /  0mm 0.0 W/m2
20:43 76.6 °F /  24.8 °C 40.1 °F /  4.5 °C 29.64in /  1003.6hPa WSW 0.9mph /  1.4km/h 8.0mph /  12.9km/h 27% 0.00in /  0mm 0.0 W/m2
20:48 76.5 °F /  24.7 °C 39.9 °F /  4.4 °C 29.65in /  1003.9hPa WSW 8.1mph /  13km/h 10.0mph /  16.1km/h 27% 0.00in /  0mm 0.0 W/m2
20:59 75.9 °F /  24.4 °C 40.5 °F /  4.7 °C 29.65in /  1003.9hPa SW 0.9mph /  1.4km/h 9.0mph /  14.5km/h 28% 0.00in /  0mm 0.0 W/m2
21:04 75.7 °F /  24.3 °C 41.2 °F /  5.1 °C 29.65in /  1003.9hPa Calm   4.0mph /  6.4km/h 29% 0.00in /  0mm 0.0 W/m2
21:09 75.7 °F /  24.3 °C 41.2 °F /  5.1 °C 29.66in /  1004.3hPa WSW 2.0mph /  3.2km/h 3.0mph /  4.8km/h 29% 0.00in /  0mm 0.0 W/m2
21:14 75.6 °F /  24.2 °C 41.0 °F /  5 °C 29.66in /  1004.3hPa Calm   3.0mph /  4.8km/h 29% 0.00in /  0mm 0.0 W/m2
21:26 75.0 °F /  23.9 °C 40.6 °F /  4.8 °C 29.65in /  1003.9hPa WSW 2.9mph /  4.7km/h 7.0mph /  11.3km/h 29% 0.00in /  0mm 0.0 W/m2
21:31 74.8 °F /  23.8 °C 40.5 °F /  4.7 °C 29.66in /  1004.3hPa WSW 2.0mph /  3.2km/h 7.0mph /  11.3km/h 29% 0.00in /  0mm 0.0 W/m2
21:41 74.7 °F /  23.7 °C 40.3 °F /  4.6 °C 29.66in /  1004.3hPa Calm   3.0mph /  4.8km/h 29% 0.00in /  0mm 0.0 W/m2
21:52 74.5 °F /  23.6 °C 41.0 °F /  5 °C 29.67in /  1004.6hPa SSW 0.9mph /  1.4km/h 3.0mph /  4.8km/h 30% 0.00in /  0mm 0.0 W/m2
21:57 74.1 °F /  23.4 °C 39.9 °F /  4.4 °C 29.67in /  1004.6hPa SSW 0.9mph /  1.4km/h 5.0mph /  8km/h 29% 0.00in /  0mm 0.0 W/m2
22:02 74.1 °F /  23.4 °C 39.9 °F /  4.4 °C 29.67in /  1004.6hPa Calm   2.0mph /  3.2km/h 29% 0.00in /  0mm 0.0 W/m2
22:08 74.1 °F /  23.4 °C 39.9 °F /  4.4 °C 29.67in /  1004.6hPa Calm   1.0mph /  1.6km/h 29% 0.00in /  0mm 0.0 W/m2
22:13 73.9 °F /  23.3 °C 39.7 °F /  4.3 °C 29.67in /  1004.6hPa Calm   3.0mph /  4.8km/h 29% 0.00in /  0mm 0.0 W/m2
22:18 73.8 °F /  23.2 °C 38.7 °F /  3.7 °C 29.67in /  1004.6hPa SSE 0.9mph /  1.4km/h 3.0mph /  4.8km/h 28% 0.00in /  0mm 0.0 W/m2
22:24 73.6 °F /  23.1 °C 38.5 °F /  3.6 °C 29.67in /  1004.6hPa Calm   2.0mph /  3.2km/h 28% 0.00in /  0mm 0.0 W/m2
22:29 73.6 °F /  23.1 °C 38.5 °F /  3.6 °C 29.67in /  1004.6hPa Calm   1.0mph /  1.6km/h 28% 0.00in /  0mm 0.0 W/m2
22:34 73.2 °F /  22.9 °C 38.1 °F /  3.4 °C 29.67in /  1004.6hPa Calm   1.0mph /  1.6km/h 28% 0.00in /  0mm 0.0 W/m2
22:39 73.0 °F /  22.8 °C 37.9 °F /  3.3 °C 29.67in /  1004.6hPa Calm     28% 0.00in /  0mm 0.0 W/m2
22:45 72.9 °F /  22.7 °C 37.8 °F /  3.2 °C 29.68in /  1005hPa Calm   1.0mph /  1.6km/h 28% 0.00in /  0mm 0.0 W/m2
22:50 72.7 °F /  22.6 °C 38.7 °F /  3.7 °C 29.68in /  1005hPa Calm   1.0mph /  1.6km/h 29% 0.00in /  0mm 0.0 W/m2
22:55 72.5 °F /  22.5 °C 38.5 °F /  3.6 °C 29.68in /  1005hPa Calm     29% 0.00in /  0mm 0.0 W/m2
23:00 72.1 °F /  22.3 °C 38.1 °F /  3.4 °C 29.68in /  1005hPa Calm     29% 0.00in /  0mm 0.0 W/m2
23:05 72.0 °F /  22.2 °C 38.8 °F /  3.8 °C 29.68in /  1005hPa Calm     30% 0.00in /  0mm 0.0 W/m2
23:10 71.8 °F /  22.1 °C 38.7 °F /  3.7 °C 29.68in /  1005hPa Calm     30% 0.00in /  0mm 0.0 W/m2
23:15 71.4 °F /  21.9 °C 38.3 °F /  3.5 °C 29.68in /  1005hPa Calm     30% 0.00in /  0mm 0.0 W/m2
23:20 71.2 °F /  21.8 °C 39.0 °F /  3.9 °C 29.68in /  1005hPa Calm     31% 0.00in /  0mm 0.0 W/m2
23:26 70.9 °F /  21.6 °C 38.7 °F /  3.7 °C 29.68in /  1005hPa Calm     31% 0.00in /  0mm 0.0 W/m2
23:31 70.5 °F /  21.4 °C 38.5 °F /  3.6 °C 29.68in /  1005hPa Calm   1.0mph /  1.6km/h 31% 0.00in /  0mm 0.0 W/m2
23:36 70.3 °F /  21.3 °C 37.4 °F /  3 °C 29.68in /  1005hPa Calm     30% 0.00in /  0mm 0.0 W/m2
23:41 70.3 °F /  21.3 °C 37.4 °F /  3 °C 29.68in /  1005hPa Calm     30% 0.00in /  0mm 0.0 W/m2
23:46 70.2 °F /  21.2 °C 38.1 °F /  3.4 °C 29.68in /  1005hPa Calm   1.0mph /  1.6km/h 31% 0.00in /  0mm 0.0 W/m2
23:51 70.2 °F /  21.2 °C 38.1 °F /  3.4 °C 29.67in /  1004.6hPa Calm     31% 0.00in /  0mm 0.0 W/m2
23:56 70.0 °F /  21.1 °C 37.0 °F /  2.8 °C 29.67in /  1004.6hPa Calm     30% 0.00in /  0mm 0.0 W/m2
Olympia, Windhoek, Namibia
Compliments of Weather Underground - 3 mb